Time;durP1;ratioP1;P1;durP2;ratioP2;P2;SDS_P1;SDS_P2;PMS_P1;PMS_P2;Temp;Humidity;BMP_temperature;BMP_pressure;BME280_temperature;BME280_humidity;BME280_pressure;Samples;Min_cycle;Max_cycle;Signal;HPM_P1;HPM_P2
2021/07/26 00:00:18;;;;;;;;;;;19.60;99.90;;;;;;6346595;28;19994;-67
2021/07/26 00:03:20;;;;;;;;;;;19.50;99.90;;;;;;6342744;28;19976;-67
2021/07/26 00:06:21;;;;;;;;;;;19.40;99.90;;;;;;6345856;28;20415;-67
2021/07/26 00:09:23;;;;;;;;;;;19.40;99.90;;;;;;6320760;28;19984;-67
2021/07/26 00:12:25;;;;;;;;;;;19.40;99.90;;;;;;6343258;28;20009;-67
2021/07/26 00:15:29;;;;;;;;;;;19.40;99.90;;;;;;6345404;28;20023;-67
2021/07/26 00:18:31;;;;;;;;;;;19.40;99.90;;;;;;6313892;28;19995;-67
2021/07/26 00:21:33;;;;;;;;;;;19.40;99.90;;;;;;6313016;28;19991;-67
2021/07/26 00:24:34;;;;;;;;;;;19.40;99.90;;;;;;6342792;28;20106;-67
2021/07/26 00:27:36;;;;;;;;;;;19.40;99.90;;;;;;6306257;28;20335;-67
2021/07/26 00:30:38;;;;;;;;;;;19.30;99.90;;;;;;6346090;28;20021;-67
2021/07/26 00:37:05;;;;;;;;;;;19.30;99.90;;;;;;6340928;28;20418;-67
2021/07/26 00:40:09;;;;;;;;;;;19.30;99.90;;;;;;6342654;28;19994;-67
2021/07/26 00:43:11;;;;;;;;;;;19.30;99.90;;;;;;6342076;28;20355;-67
2021/07/26 00:46:12;;;;;;;;;;;19.30;99.90;;;;;;6317171;28;19979;-67
2021/07/26 00:49:15;;;;;;;;;;;19.30;99.90;;;;;;6338769;28;20003;-67
2021/07/26 00:52:17;;;;;;;;;;;19.20;99.90;;;;;;6342537;28;20450;-67
2021/07/26 00:55:18;;;;;;;;;;;19.20;99.90;;;;;;6344649;28;19971;-67
2021/07/26 00:58:20;;;;;;;;;;;19.20;99.90;;;;;;6339134;28;20080;-67
2021/07/26 01:01:22;;;;;;;;;;;19.20;99.90;;;;;;6345184;28;20372;-67
2021/07/26 01:04:24;;;;;;;;;;;19.10;99.90;;;;;;6341624;28;19986;-67
2021/07/26 01:07:25;;;;;;;;;;;19.10;99.90;;;;;;6340337;28;19976;-68
2021/07/26 01:10:27;;;;;;;;;;;19.00;99.90;;;;;;6342239;28;20415;-67
2021/07/26 01:13:29;;;;;;;;;;;18.90;99.90;;;;;;6316008;28;20360;-67
2021/07/26 01:16:31;;;;;;;;;;;18.90;99.90;;;;;;6326386;28;19996;-67
2021/07/26 01:19:33;;;;;;;;;;;18.80;99.90;;;;;;6333152;28;19992;-67
2021/07/26 01:22:35;;;;;;;;;;;18.80;99.90;;;;;;6336484;28;19978;-67
2021/07/26 01:25:37;;;;;;;;;;;18.80;99.90;;;;;;6344925;28;19995;-67
2021/07/26 01:28:45;;;;;;;;;;;18.80;99.90;;;;;;6342032;28;19991;-67
2021/07/26 01:31:47;;;;;;;;;;;18.80;99.90;;;;;;6340040;28;19976;-67
2021/07/26 01:34:49;;;;;;;;;;;18.80;99.90;;;;;;6323994;28;19982;-67
2021/07/26 01:37:51;;;;;;;;;;;18.80;99.90;;;;;;6342292;28;20458;-67
2021/07/26 01:40:54;;;;;;;;;;;18.80;99.90;;;;;;6338015;28;19991;-67
2021/07/26 01:44:02;;;;;;;;;;;18.80;99.90;;;;;;6341208;28;19976;-67
2021/07/26 01:47:05;;;;;;;;;;;18.80;99.90;;;;;;6342961;28;20090;-67
2021/07/26 01:50:09;;;;;;;;;;;18.80;99.90;;;;;;6321734;28;20012;-67
2021/07/26 01:53:11;;;;;;;;;;;18.90;99.90;;;;;;6340397;28;19983;-67
2021/07/26 01:56:12;;;;;;;;;;;18.90;99.90;;;;;;6331009;28;19979;-67
2021/07/26 01:59:14;;;;;;;;;;;18.80;99.90;;;;;;6341357;28;19991;-67
2021/07/26 02:02:16;;;;;;;;;;;18.90;99.90;;;;;;6346743;28;19996;-67
2021/07/26 02:05:18;;;;;;;;;;;18.80;99.90;;;;;;6311300;28;20058;-67
2021/07/26 02:08:19;;;;;;;;;;;18.80;99.90;;;;;;6347180;28;19983;-67
2021/07/26 02:11:22;;;;;;;;;;;18.80;99.90;;;;;;6342961;28;19981;-67
2021/07/26 02:14:23;;;;;;;;;;;18.70;99.90;;;;;;6345084;28;19975;-67
2021/07/26 02:17:25;;;;;;;;;;;18.70;99.90;;;;;;6315581;28;20038;-67
2021/07/26 02:20:27;;;;;;;;;;;18.70;99.90;;;;;;6310988;28;19991;-67
2021/07/26 02:31:36;;;;;;;;;;;18.70;99.90;;;;;;6345434;28;20004;-67
2021/07/26 02:34:38;;;;;;;;;;;18.70;99.90;;;;;;6344773;28;19975;-67
2021/07/26 02:37:39;;;;;;;;;;;18.60;99.90;;;;;;6342654;28;19976;-67
2021/07/26 02:40:41;;;;;;;;;;;18.60;99.90;;;;;;6347704;28;20485;-67
2021/07/26 02:43:43;;;;;;;;;;;18.50;99.90;;;;;;6345121;28;19971;-67
2021/07/26 02:46:45;;;;;;;;;;;18.50;99.90;;;;;;6309164;28;19979;-67
2021/07/26 02:49:46;;;;;;;;;;;18.50;99.90;;;;;;6344542;28;20342;-67
2021/07/26 02:52:48;;;;;;;;;;;18.60;99.90;;;;;;6345083;28;20309;-67
2021/07/26 02:55:49;;;;;;;;;;;18.60;99.90;;;;;;6347893;28;19985;-67
2021/07/26 02:58:52;;;;;;;;;;;18.60;99.90;;;;;;6315087;28;20362;-67
2021/07/26 03:01:54;;;;;;;;;;;18.60;99.90;;;;;;6345826;28;20480;-67
2021/07/26 03:04:57;;;;;;;;;;;18.70;99.90;;;;;;6345828;28;20018;-67
2021/07/26 03:08:01;;;;;;;;;;;18.70;99.90;;;;;;6342624;28;19976;-67
2021/07/26 03:11:08;;;;;;;;;;;18.70;99.90;;;;;;6347416;28;19976;-67
2021/07/26 03:14:10;;;;;;;;;;;18.60;99.90;;;;;;6340104;28;19972;-67
2021/07/26 03:17:12;;;;;;;;;;;18.60;99.90;;;;;;6345086;28;20090;-67
2021/07/26 03:20:13;;;;;;;;;;;18.60;99.90;;;;;;6333230;28;19995;-67
2021/07/26 03:23:15;;;;;;;;;;;18.60;99.90;;;;;;6339332;28;20045;-67
2021/07/26 03:26:17;;;;;;;;;;;18.60;99.90;;;;;;6347251;28;19976;-67
2021/07/26 03:29:19;;;;;;;;;;;18.60;99.90;;;;;;6339433;28;20462;-67
2021/07/26 03:32:21;;;;;;;;;;;18.60;99.90;;;;;;6344356;28;19976;-67
2021/07/26 03:35:24;;;;;;;;;;;18.60;99.90;;;;;;6346671;28;20001;-67
2021/07/26 03:38:25;;;;;;;;;;;18.60;99.90;;;;;;6339191;28;20045;-67
2021/07/26 03:41:27;;;;;;;;;;;18.60;99.90;;;;;;6347030;28;20049;-67
2021/07/26 03:44:28;;;;;;;;;;;18.60;99.90;;;;;;6318418;28;20319;-67
2021/07/26 03:47:30;;;;;;;;;;;18.60;99.90;;;;;;6339435;28;19972;-67
2021/07/26 03:50:32;;;;;;;;;;;18.60;99.90;;;;;;6346782;28;19976;-67
2021/07/26 03:53:33;;;;;;;;;;;18.60;99.90;;;;;;6342942;28;20415;-67
2021/07/26 03:56:35;;;;;;;;;;;18.60;99.90;;;;;;6345363;28;19976;-67
2021/07/26 03:59:37;;;;;;;;;;;18.60;99.90;;;;;;6344974;28;19991;-67
2021/07/26 04:02:39;;;;;;;;;;;18.50;99.90;;;;;;6313873;28;20403;-67
2021/07/26 04:05:52;;;;;;;;;;;18.50;99.90;;;;;;6344802;28;20017;-67
2021/07/26 04:08:54;;;;;;;;;;;18.50;99.90;;;;;;6334708;28;19976;-67
2021/07/26 04:12:22;;;;;;;;;;;18.50;99.90;;;;;;6318257;28;19983;-67
2021/07/26 04:15:18;;;;;;;;;;;18.50;99.90;;;;;;6339218;28;20003;-67
2021/07/26 04:18:20;;;;;;;;;;;18.50;99.90;;;;;;6335581;28;19983;-67
2021/07/26 04:21:34;;;;;;;;;;;18.50;99.90;;;;;;6335782;28;19991;-67
2021/07/26 04:24:35;;;;;;;;;;;18.40;99.90;;;;;;6315243;28;20109;-67
2021/07/26 04:27:37;;;;;;;;;;;18.50;99.90;;;;;;6338579;28;19975;-67
2021/07/26 04:30:39;;;;;;;;;;;18.50;99.90;;;;;;6345410;28;20372;-67
2021/07/26 04:33:40;;;;;;;;;;;18.50;99.90;;;;;;6315611;28;19998;-67
2021/07/26 04:36:42;;;;;;;;;;;18.50;99.90;;;;;;6339704;28;19975;-67
2021/07/26 04:39:43;;;;;;;;;;;18.50;99.90;;;;;;6342794;28;19998;-67
2021/07/26 04:42:45;;;;;;;;;;;18.50;99.90;;;;;;6312587;28;19983;-67
2021/07/26 04:45:47;;;;;;;;;;;18.50;99.90;;;;;;6345316;28;19980;-67
2021/07/26 04:49:04;;;;;;;;;;;18.50;99.90;;;;;;6315596;28;20233;-67
2021/07/26 04:52:05;;;;;;;;;;;18.50;99.90;;;;;;6342197;28;19981;-67
2021/07/26 04:55:07;;;;;;;;;;;18.60;99.90;;;;;;6316845;28;20064;-67
2021/07/26 04:58:09;;;;;;;;;;;18.70;99.90;;;;;;6342966;28;19994;-67
2021/07/26 05:01:10;;;;;;;;;;;18.70;99.90;;;;;;6344828;28;19991;-67
2021/07/26 05:04:12;;;;;;;;;;;18.70;99.90;;;;;;6318067;28;20358;-67
2021/07/26 05:07:14;;;;;;;;;;;18.70;99.90;;;;;;6340294;28;19980;-67
2021/07/26 05:10:16;;;;;;;;;;;18.80;99.90;;;;;;6341930;28;20433;-67
2021/07/26 05:13:17;;;;;;;;;;;18.80;99.90;;;;;;6334842;28;20457;-67
2021/07/26 05:16:19;;;;;;;;;;;18.90;99.90;;;;;;6344637;28;19996;-67
2021/07/26 05:19:21;;;;;;;;;;;18.90;99.90;;;;;;6309852;28;20001;-67
2021/07/26 05:22:22;;;;;;;;;;;19.00;99.90;;;;;;6308069;28;19976;-67
2021/07/26 05:25:24;;;;;;;;;;;19.10;99.90;;;;;;6337848;28;20407;-67
2021/07/26 05:28:26;;;;;;;;;;;19.20;99.90;;;;;;6338675;28;19998;-67
2021/07/26 05:31:28;;;;;;;;;;;19.20;99.90;;;;;;6344682;28;20025;-67
2021/07/26 05:34:29;;;;;;;;;;;19.20;99.90;;;;;;6341045;28;20009;-68
2021/07/26 05:37:34;;;;;;;;;;;19.30;99.90;;;;;;6313609;28;20089;-67
2021/07/26 05:40:36;;;;;;;;;;;19.30;99.90;;;;;;6344266;28;20087;-68
2021/07/26 05:43:37;;;;;;;;;;;19.30;99.90;;;;;;6341892;28;19999;-68
2021/07/26 05:46:39;;;;;;;;;;;19.30;99.90;;;;;;6344553;28;19979;-68
2021/07/26 05:49:43;;;;;;;;;;;19.30;99.90;;;;;;6339730;28;20447;-68
2021/07/26 05:52:46;;;;;;;;;;;19.30;99.90;;;;;;6340901;28;20411;-68
2021/07/26 05:55:47;;;;;;;;;;;19.30;99.90;;;;;;6312411;28;20404;-68
2021/07/26 05:58:49;;;;;;;;;;;19.30;99.90;;;;;;6316590;28;19980;-68
2021/07/26 06:01:51;;;;;;;;;;;19.30;99.90;;;;;;6314466;28;19991;-68
2021/07/26 06:04:53;;;;;;;;;;;19.40;99.90;;;;;;6342907;28;19980;-68
2021/07/26 06:07:54;;;;;;;;;;;19.50;99.90;;;;;;6315885;28;19984;-68
2021/07/26 06:10:56;;;;;;;;;;;19.50;99.90;;;;;;6309596;28;19976;-68
2021/07/26 06:13:58;;;;;;;;;;;19.50;99.90;;;;;;6320955;28;19972;-68
2021/07/26 06:16:59;;;;;;;;;;;19.50;99.90;;;;;;6323595;28;20006;-68
2021/07/26 06:20:02;;;;;;;;;;;19.50;99.90;;;;;;6330595;28;19987;-67
2021/07/26 06:23:04;;;;;;;;;;;19.60;99.90;;;;;;6339428;28;19999;-68
2021/07/26 06:26:07;;;;;;;;;;;19.60;99.90;;;;;;6343392;28;19979;-68
2021/07/26 06:29:09;;;;;;;;;;;19.60;99.90;;;;;;6341597;28;19983;-68
2021/07/26 06:32:11;;;;;;;;;;;19.60;99.90;;;;;;6301032;28;19979;-68
2021/07/26 06:35:12;;;;;;;;;;;19.60;99.90;;;;;;6342890;28;19999;-68
2021/07/26 06:38:14;;;;;;;;;;;19.60;99.90;;;;;;6328321;28;19972;-68
2021/07/26 06:41:16;;;;;;;;;;;19.70;99.90;;;;;;6348083;28;20027;-68
2021/07/26 06:44:18;;;;;;;;;;;19.70;99.90;;;;;;6345295;28;19980;-67
2021/07/26 06:47:19;;;;;;;;;;;19.60;99.90;;;;;;6314956;28;19976;-68
2021/07/26 06:50:21;;;;;;;;;;;19.70;99.90;;;;;;6346212;28;20449;-68
2021/07/26 06:53:24;;;;;;;;;;;19.70;99.90;;;;;;6322055;28;20384;-67
2021/07/26 06:56:26;;;;;;;;;;;19.70;99.90;;;;;;6317807;28;19999;-68
2021/07/26 06:59:27;;;;;;;;;;;19.80;99.90;;;;;;6340599;28;20006;-68
2021/07/26 07:02:29;;;;;;;;;;;19.80;99.90;;;;;;6312798;28;20333;-68
2021/07/26 07:05:31;;;;;;;;;;;19.80;99.90;;;;;;6347504;28;19935;-68
2021/07/26 07:08:32;;;;;;;;;;;19.60;99.90;;;;;;6341008;28;19999;-68
2021/07/26 07:11:34;;;;;;;;;;;19.60;99.90;;;;;;6328422;28;19979;-69
2021/07/26 07:14:35;;;;;;;;;;;19.40;99.90;;;;;;6345311;28;19972;-69
2021/07/26 07:17:37;;;;;;;;;;;19.40;99.90;;;;;;6341792;28;19972;-68
2021/07/26 07:20:39;;;;;;;;;;;19.40;99.90;;;;;;6330777;28;19992;-69
2021/07/26 07:23:41;;;;;;;;;;;19.40;99.90;;;;;;6344882;28;19972;-68
2021/07/26 07:26:42;;;;;;;;;;;19.30;99.90;;;;;;6346139;28;19980;-68
2021/07/26 07:29:44;;;;;;;;;;;19.30;99.90;;;;;;6319207;28;19978;-68
2021/07/26 07:32:46;;;;;;;;;;;19.30;99.90;;;;;;6316115;28;20003;-68
2021/07/26 07:35:47;;;;;;;;;;;19.30;99.90;;;;;;6320102;28;19987;-68
2021/07/26 07:38:53;;;;;;;;;;;19.30;99.90;;;;;;6336804;28;19984;-68
2021/07/26 07:41:55;;;;;;;;;;;19.30;99.90;;;;;;6319391;28;19996;-68
2021/07/26 07:44:56;;;;;;;;;;;19.30;99.90;;;;;;6337943;28;19983;-68
2021/07/26 07:47:58;;;;;;;;;;;19.30;99.90;;;;;;6314167;28;20365;-69
2021/07/26 07:51:00;;;;;;;;;;;19.30;99.90;;;;;;6337931;28;19983;-68
2021/07/26 07:54:02;;;;;;;;;;;19.40;99.90;;;;;;6342575;28;20431;-68
2021/07/26 07:57:04;;;;;;;;;;;19.50;99.90;;;;;;6343844;28;19979;-68
2021/07/26 08:00:08;;;;;;;;;;;19.60;99.90;;;;;;6342742;28;19988;-68
2021/07/26 08:03:10;;;;;;;;;;;19.50;99.90;;;;;;6331181;28;19972;-68
2021/07/26 08:06:13;;;;;;;;;;;19.60;99.90;;;;;;6341378;28;19980;-69
2021/07/26 08:09:17;;;;;;;;;;;19.60;99.90;;;;;;6338078;28;20003;-69
2021/07/26 08:12:19;;;;;;;;;;;19.60;99.90;;;;;;6338236;28;20376;-68
2021/07/26 08:15:22;;;;;;;;;;;19.70;99.90;;;;;;6340842;28;19996;-68
2021/07/26 08:18:25;;;;;;;;;;;19.70;99.90;;;;;;6331398;28;20145;-69
2021/07/26 08:21:27;;;;;;;;;;;19.70;99.90;;;;;;6337631;28;19994;-68
2021/07/26 08:24:28;;;;;;;;;;;19.80;99.90;;;;;;6339521;28;20453;-69
2021/07/26 08:27:30;;;;;;;;;;;19.80;99.90;;;;;;6335280;28;19972;-69
2021/07/26 08:30:36;;;;;;;;;;;19.90;99.90;;;;;;6315150;28;20373;-69
2021/07/26 08:33:38;;;;;;;;;;;19.90;99.90;;;;;;6332451;28;19980;-68
2021/07/26 08:36:40;;;;;;;;;;;19.90;99.90;;;;;;6332698;28;20080;-68
2021/07/26 08:39:44;;;;;;;;;;;20.00;99.90;;;;;;6340893;28;20101;-68
2021/07/26 08:42:45;;;;;;;;;;;20.00;99.90;;;;;;6340892;28;20357;-69
2021/07/26 08:45:47;;;;;;;;;;;20.10;99.90;;;;;;6319257;28;19987;-69
2021/07/26 08:48:49;;;;;;;;;;;20.20;99.90;;;;;;6325864;28;20444;-69
2021/07/26 08:51:51;;;;;;;;;;;20.20;99.90;;;;;;6333363;28;20402;-69
2021/07/26 08:54:54;;;;;;;;;;;20.20;99.90;;;;;;6341458;28;20333;-68
2021/07/26 08:57:56;;;;;;;;;;;20.20;99.90;;;;;;6339507;28;20431;-68
2021/07/26 09:00:58;;;;;;;;;;;20.20;99.90;;;;;;6339956;28;20006;-69
2021/07/26 09:04:00;;;;;;;;;;;20.20;99.90;;;;;;6319768;28;20307;-68
2021/07/26 09:07:06;;;;;;;;;;;20.10;99.90;;;;;;6339118;28;20417;-68
2021/07/26 09:10:14;;;;;;;;;;;20.10;99.90;;;;;;6343575;28;19980;-69
2021/07/26 09:13:31;;;;;;;;;;;20.30;99.90;;;;;;6339825;28;19987;-69
2021/07/26 09:16:33;;;;;;;;;;;20.40;99.90;;;;;;6342281;28;20000;-68
2021/07/26 09:19:53;;;;;;;;;;;20.40;99.90;;;;;;6333776;28;20070;-68
2021/07/26 09:23:08;;;;;;;;;;;20.50;99.90;;;;;;6336704;28;19976;-68
2021/07/26 09:26:26;;;;;;;;;;;20.50;99.90;;;;;;6333580;28;19979;-69
2021/07/26 09:29:28;;;;;;;;;;;20.50;99.90;;;;;;6312871;28;19987;-69
2021/07/26 09:32:35;;;;;;;;;;;20.60;99.90;;;;;;6315674;28;19979;-69
2021/07/26 09:35:37;;;;;;;;;;;20.60;99.90;;;;;;6339323;28;20053;-68
2021/07/26 09:38:42;;;;;;;;;;;20.60;99.90;;;;;;6338120;28;20442;-68
2021/07/26 09:41:52;;;;;;;;;;;20.60;99.90;;;;;;6336749;28;19992;-68
2021/07/26 09:44:54;;;;;;;;;;;20.60;99.90;;;;;;6332418;28;19987;-69
2021/07/26 09:48:05;;;;;;;;;;;20.70;99.90;;;;;;6334384;28;19954;-68
2021/07/26 09:51:16;;;;;;;;;;;20.80;99.90;;;;;;6324588;28;20416;-69
2021/07/26 09:54:18;;;;;;;;;;;20.90;99.90;;;;;;6334846;28;20424;-68
2021/07/26 09:57:20;;;;;;;;;;;21.00;99.90;;;;;;6338740;28;20014;-68
2021/07/26 10:00:22;;;;;;;;;;;21.00;99.90;;;;;;6343110;28;19991;-69
2021/07/26 10:03:24;;;;;;;;;;;21.10;99.90;;;;;;6338710;28;19983;-68
2021/07/26 10:06:28;;;;;;;;;;;21.10;99.90;;;;;;6341983;28;19972;-68
2021/07/26 10:09:30;;;;;;;;;;;21.20;99.90;;;;;;6313533;28;19979;-68
2021/07/26 10:12:32;;;;;;;;;;;21.20;99.90;;;;;;6327019;28;20322;-68
2021/07/26 10:15:34;;;;;;;;;;;21.30;99.90;;;;;;6342409;28;19995;-69
2021/07/26 10:18:35;;;;;;;;;;;21.40;99.90;;;;;;6316702;28;19979;-69
2021/07/26 10:21:37;;;;;;;;;;;21.50;99.90;;;;;;6338909;28;19995;-69
2021/07/26 10:24:46;;;;;;;;;;;21.50;99.90;;;;;;6311913;28;19994;-69
2021/07/26 10:27:49;;;;;;;;;;;21.60;99.90;;;;;;6346377;28;19987;-69
2021/07/26 10:30:51;;;;;;;;;;;21.60;99.90;;;;;;6343105;28;19984;-68
2021/07/26 10:34:04;;;;;;;;;;;21.60;99.90;;;;;;6345128;28;19980;-68
2021/07/26 10:37:06;;;;;;;;;;;21.60;99.90;;;;;;6338587;28;20026;-69
2021/07/26 10:40:21;;;;;;;;;;;21.60;99.90;;;;;;6340107;28;20310;-68
2021/07/26 10:43:42;;;;;;;;;;;21.60;99.90;;;;;;6342271;28;19965;-68
2021/07/26 10:46:53;;;;;;;;;;;21.70;99.90;;;;;;6342010;28;20033;-68
2021/07/26 10:50:11;;;;;;;;;;;21.70;99.90;;;;;;6338748;28;19976;-69
2021/07/26 10:53:31;;;;;;;;;;;21.80;99.90;;;;;;6342039;28;19983;-68
2021/07/26 10:56:53;;;;;;;;;;;21.80;99.90;;;;;;6344481;28;20009;-68
2021/07/26 11:00:09;;;;;;;;;;;21.90;99.90;;;;;;6347276;28;19989;-68
2021/07/26 11:03:31;;;;;;;;;;;22.00;99.90;;;;;;6341128;28;20084;-68
2021/07/26 11:06:36;;;;;;;;;;;22.10;99.90;;;;;;6341653;28;20110;-68
2021/07/26 11:09:41;;;;;;;;;;;22.10;99.90;;;;;;6337998;28;20040;-69
2021/07/26 11:12:55;;;;;;;;;;;22.10;99.90;;;;;;6343329;28;20406;-68
2021/07/26 11:15:57;;;;;;;;;;;22.10;99.90;;;;;;6347257;28;20000;-68
2021/07/26 11:19:18;;;;;;;;;;;22.20;99.90;;;;;;6329811;28;19984;-68
2021/07/26 11:22:26;;;;;;;;;;;22.10;99.90;;;;;;6339771;28;19992;-68
2021/07/26 11:25:29;;;;;;;;;;;22.10;99.90;;;;;;6341231;28;20014;-68
2021/07/26 11:28:36;;;;;;;;;;;21.80;99.90;;;;;;6336691;28;19972;-68
2021/07/26 11:31:39;;;;;;;;;;;21.50;99.90;;;;;;6345481;28;20318;-68
2021/07/26 11:34:41;;;;;;;;;;;21.20;99.90;;;;;;6340227;28;19976;-68
2021/07/26 11:37:42;;;;;;;;;;;21.00;99.90;;;;;;6334137;28;20056;-68
2021/07/26 11:40:44;;;;;;;;;;;20.80;99.90;;;;;;6339373;28;20007;-69
2021/07/26 11:43:47;;;;;;;;;;;20.60;99.90;;;;;;6319383;28;20502;-68
2021/07/26 11:46:49;;;;;;;;;;;20.50;99.90;;;;;;6321724;28;19986;-68
2021/07/26 11:49:50;;;;;;;;;;;20.40;99.90;;;;;;6334058;28;19976;-69
2021/07/26 11:52:53;;;;;;;;;;;20.20;99.90;;;;;;6317390;28;19999;-68
2021/07/26 11:55:55;;;;;;;;;;;20.00;99.90;;;;;;6342842;28;20438;-68
2021/07/26 11:59:15;;;;;;;;;;;19.90;99.90;;;;;;6340112;28;19984;-69
2021/07/26 12:02:19;;;;;;;;;;;19.80;99.90;;;;;;6325396;28;19996;-68
2021/07/26 12:05:29;;;;;;;;;;;19.90;99.90;;;;;;6342275;28;20292;-69
2021/07/26 12:08:30;;;;;;;;;;;20.00;99.90;;;;;;6340464;28;20386;-68
2021/07/26 12:11:32;;;;;;;;;;;20.20;99.90;;;;;;6333923;28;19979;-69
2021/07/26 12:14:34;;;;;;;;;;;20.40;99.90;;;;;;6335042;28;20045;-69
2021/07/26 12:17:36;;;;;;;;;;;20.60;99.90;;;;;;6343118;28;20299;-68
2021/07/26 12:20:53;;;;;;;;;;;20.70;99.90;;;;;;6337403;28;20346;-68
2021/07/26 12:23:55;;;;;;;;;;;20.80;99.90;;;;;;6332079;28;20348;-69
2021/07/26 12:26:59;;;;;;;;;;;20.90;99.90;;;;;;6341382;28;19980;-68
2021/07/26 12:30:03;;;;;;;;;;;20.90;99.90;;;;;;6342636;28;19983;-68
2021/07/26 12:33:06;;;;;;;;;;;21.00;99.90;;;;;;6336486;28;20028;-68
2021/07/26 12:36:11;;;;;;;;;;;20.90;99.90;;;;;;6345601;28;19972;-68
2021/07/26 12:39:14;;;;;;;;;;;20.80;99.90;;;;;;6338152;28;20423;-68
2021/07/26 12:42:19;;;;;;;;;;;20.70;99.90;;;;;;6341648;28;19988;-68
2021/07/26 12:45:23;;;;;;;;;;;20.50;99.90;;;;;;6326456;28;19975;-68
2021/07/26 12:48:26;;;;;;;;;;;20.40;99.90;;;;;;6338955;28;20000;-68
2021/07/26 12:51:27;;;;;;;;;;;20.40;99.90;;;;;;6311262;28;19979;-67
2021/07/26 12:54:43;;;;;;;;;;;20.40;99.90;;;;;;6333660;28;19983;-68
2021/07/26 12:57:44;;;;;;;;;;;20.40;99.90;;;;;;6336285;28;19976;-68
2021/07/26 13:00:54;;;;;;;;;;;20.40;99.90;;;;;;6334907;28;19992;-68
2021/07/26 13:03:56;;;;;;;;;;;20.40;99.90;;;;;;6334007;28;19976;-68
2021/07/26 13:06:58;;;;;;;;;;;20.40;99.90;;;;;;6316595;28;20015;-68
2021/07/26 13:10:00;;;;;;;;;;;20.40;99.90;;;;;;6338437;28;19979;-68
2021/07/26 13:13:01;;;;;;;;;;;20.50;99.90;;;;;;6329800;28;19979;-68
2021/07/26 13:16:03;;;;;;;;;;;20.60;99.90;;;;;;6334573;28;19992;-69
2021/07/26 13:19:05;;;;;;;;;;;20.70;99.90;;;;;;6314975;28;19987;-68
2021/07/26 13:22:06;;;;;;;;;;;20.70;99.90;;;;;;6316095;28;20008;-68
2021/07/26 13:25:09;;;;;;;;;;;20.80;99.90;;;;;;6344237;28;19979;-69
2021/07/26 13:28:12;;;;;;;;;;;20.80;99.90;;;;;;6339148;28;19984;-68
2021/07/26 13:31:13;;;;;;;;;;;21.00;99.90;;;;;;6340442;28;19982;-68
2021/07/26 13:34:15;;;;;;;;;;;21.20;99.90;;;;;;6324890;28;19976;-68
2021/07/26 13:37:17;;;;;;;;;;;21.30;99.90;;;;;;6336744;28;20365;-68
2021/07/26 13:40:19;;;;;;;;;;;21.40;99.90;;;;;;6340829;28;19975;-68
2021/07/26 13:43:20;;;;;;;;;;;21.30;99.90;;;;;;6319863;28;19991;-68
2021/07/26 13:46:22;;;;;;;;;;;21.20;99.90;;;;;;6346015;28;19923;-68
2021/07/26 13:49:24;;;;;;;;;;;21.10;99.90;;;;;;6341698;28;20000;-68
2021/07/26 13:52:26;;;;;;;;;;;21.10;99.90;;;;;;6322576;28;19986;-68
2021/07/26 13:55:28;;;;;;;;;;;21.00;99.90;;;;;;6345801;28;20451;-68
2021/07/26 13:58:29;;;;;;;;;;;21.00;99.90;;;;;;6343435;28;19975;-69
2021/07/26 14:01:31;;;;;;;;;;;21.00;99.90;;;;;;6342697;28;19998;-68
2021/07/26 14:04:33;;;;;;;;;;;21.00;99.90;;;;;;6342409;28;19972;-68
2021/07/26 14:07:34;;;;;;;;;;;21.00;99.90;;;;;;6343787;28;20099;-68
2021/07/26 14:10:36;;;;;;;;;;;21.00;99.90;;;;;;6341263;28;20016;-68
2021/07/26 14:13:38;;;;;;;;;;;21.00;99.90;;;;;;6339670;28;19968;-68
2021/07/26 14:16:39;;;;;;;;;;;21.00;99.90;;;;;;6340330;28;20437;-68
2021/07/26 14:19:41;;;;;;;;;;;21.00;99.90;;;;;;6336632;28;19983;-68
2021/07/26 14:22:43;;;;;;;;;;;21.00;99.90;;;;;;6339086;28;20497;-68
2021/07/26 14:25:44;;;;;;;;;;;21.00;99.90;;;;;;6344017;28;19976;-68
2021/07/26 14:28:48;;;;;;;;;;;21.00;99.90;;;;;;6335705;28;19928;-69
2021/07/26 14:31:49;;;;;;;;;;;21.00;99.90;;;;;;6315923;28;19987;-69
2021/07/26 14:34:51;;;;;;;;;;;21.00;99.90;;;;;;6344663;28;19972;-69
2021/07/26 14:37:53;;;;;;;;;;;21.00;99.90;;;;;;6339454;28;19983;-68
2021/07/26 14:40:54;;;;;;;;;;;21.00;99.90;;;;;;6322843;28;19980;-69
2021/07/26 14:43:56;;;;;;;;;;;21.00;99.90;;;;;;6340957;28;19979;-69
2021/07/26 14:46:57;;;;;;;;;;;21.00;99.90;;;;;;6343989;28;19987;-69
2021/07/26 14:50:00;;;;;;;;;;;21.00;99.90;;;;;;6337967;28;19972;-68
2021/07/26 14:53:01;;;;;;;;;;;20.90;99.90;;;;;;6333687;28;19978;-68
2021/07/26 14:56:03;;;;;;;;;;;20.80;99.90;;;;;;6332510;28;20033;-68
2021/07/26 14:59:07;;;;;;;;;;;20.50;99.90;;;;;;6339203;28;19988;-68
2021/07/26 15:02:13;;;;;;;;;;;20.30;99.90;;;;;;6324193;28;20003;-68
2021/07/26 15:05:15;;;;;;;;;;;20.20;99.90;;;;;;6344527;28;19976;-68
2021/07/26 15:08:17;;;;;;;;;;;20.10;99.90;;;;;;6331840;28;19980;-68
2021/07/26 15:11:18;;;;;;;;;;;20.10;99.90;;;;;;6338283;28;19980;-68
2021/07/26 15:14:20;;;;;;;;;;;20.00;99.90;;;;;;6316354;28;19969;-68
2021/07/26 15:17:22;;;;;;;;;;;20.00;99.90;;;;;;6339630;28;20441;-68
2021/07/26 15:20:24;;;;;;;;;;;20.00;99.90;;;;;;6320210;28;20027;-68
2021/07/26 15:23:26;;;;;;;;;;;20.00;99.90;;;;;;6301117;28;20431;-68
2021/07/26 15:26:28;;;;;;;;;;;20.10;99.90;;;;;;6317586;28;19976;-68
2021/07/26 15:29:30;;;;;;;;;;;20.10;99.90;;;;;;6317528;28;20474;-68
2021/07/26 15:32:31;;;;;;;;;;;20.30;99.90;;;;;;6316467;28;19979;-68
2021/07/26 15:35:34;;;;;;;;;;;20.50;99.90;;;;;;6316678;28;19976;-68
2021/07/26 15:38:35;;;;;;;;;;;20.60;99.90;;;;;;6320684;28;19984;-68
2021/07/26 15:41:37;;;;;;;;;;;20.80;99.90;;;;;;6296695;28;20011;-68
2021/07/26 15:44:39;;;;;;;;;;;20.90;99.90;;;;;;6317286;28;19983;-68
2021/07/26 15:47:40;;;;;;;;;;;21.00;99.90;;;;;;6314694;28;19980;-68
2021/07/26 15:50:42;;;;;;;;;;;21.00;99.90;;;;;;6313486;28;19976;-68
2021/07/26 15:53:44;;;;;;;;;;;21.00;99.90;;;;;;6314292;28;20036;-69
2021/07/26 15:56:45;;;;;;;;;;;21.00;99.90;;;;;;6316599;28;19987;-68
2021/07/26 15:59:47;;;;;;;;;;;20.90;99.90;;;;;;6317502;28;20052;-68
2021/07/26 16:02:49;;;;;;;;;;;21.00;99.90;;;;;;6296570;28;19996;-69
2021/07/26 16:05:53;;;;;;;;;;;20.90;99.90;;;;;;6317931;28;20433;-69
2021/07/26 16:08:55;;;;;;;;;;;20.90;99.90;;;;;;6314169;28;20292;-69
2021/07/26 16:11:57;;;;;;;;;;;20.90;99.90;;;;;;6296081;28;19987;-69
2021/07/26 16:15:00;;;;;;;;;;;20.80;99.90;;;;;;6319250;28;20102;-68
2021/07/26 16:18:02;;;;;;;;;;;20.80;99.90;;;;;;6317650;28;19973;-68
2021/07/26 16:21:03;;;;;;;;;;;20.60;99.90;;;;;;6316965;28;19987;-68
2021/07/26 16:24:05;;;;;;;;;;;20.50;99.90;;;;;;6314820;28;19988;-68
2021/07/26 16:27:07;;;;;;;;;;;20.40;99.90;;;;;;6316195;28;20346;-68
2021/07/26 16:30:13;;;;;;;;;;;20.30;99.90;;;;;;6316005;28;20636;-68
2021/07/26 16:33:15;;;;;;;;;;;20.30;99.90;;;;;;6315063;28;19983;-68
2021/07/26 16:36:17;;;;;;;;;;;20.20;99.90;;;;;;6300542;28;19980;-69
2021/07/26 16:39:19;;;;;;;;;;;20.20;99.90;;;;;;6297272;28;19972;-68
2021/07/26 16:42:21;;;;;;;;;;;20.20;99.90;;;;;;6315693;28;19991;-68
2021/07/26 16:45:23;;;;;;;;;;;20.30;99.90;;;;;;6297761;28;20377;-68
2021/07/26 16:48:25;;;;;;;;;;;20.40;99.90;;;;;;6297530;28;19980;-68
2021/07/26 16:51:26;;;;;;;;;;;20.40;99.90;;;;;;6298169;28;20504;-69
2021/07/26 16:54:28;;;;;;;;;;;20.50;99.90;;;;;;6314353;28;19980;-69
2021/07/26 16:57:29;;;;;;;;;;;20.60;99.90;;;;;;6315775;28;19970;-68
2021/07/26 17:00:31;;;;;;;;;;;20.60;99.90;;;;;;6316144;28;19972;-68
2021/07/26 17:03:33;;;;;;;;;;;20.80;99.90;;;;;;6296198;28;19987;-69
2021/07/26 17:06:35;;;;;;;;;;;20.80;99.90;;;;;;6297282;28;20288;-68
2021/07/26 17:09:36;;;;;;;;;;;20.90;99.90;;;;;;6315776;28;19980;-68
2021/07/26 17:12:39;;;;;;;;;;;20.90;99.90;;;;;;6297507;28;20295;-69
2021/07/26 17:15:41;;;;;;;;;;;20.90;99.90;;;;;;6317045;28;19996;-68
2021/07/26 17:18:43;;;;;;;;;;;20.80;99.90;;;;;;6297814;28;19976;-68
2021/07/26 17:21:44;;;;;;;;;;;20.80;99.90;;;;;;6313399;28;20275;-68
2021/07/26 17:24:46;;;;;;;;;;;20.80;99.90;;;;;;6315169;28;20086;-68
2021/07/26 17:27:48;;;;;;;;;;;20.80;99.90;;;;;;6314260;28;19983;-68
2021/07/26 17:30:49;;;;;;;;;;;20.80;99.90;;;;;;6315261;28;20056;-68
2021/07/26 17:33:51;;;;;;;;;;;20.70;99.90;;;;;;6294929;28;19983;-68
2021/07/26 17:36:54;;;;;;;;;;;20.70;99.90;;;;;;6316587;28;20319;-69
2021/07/26 17:39:56;;;;;;;;;;;20.70;99.90;;;;;;6316724;28;20506;-69
2021/07/26 17:42:58;;;;;;;;;;;20.70;99.90;;;;;;6312794;28;19996;-69
2021/07/26 17:46:00;;;;;;;;;;;20.70;99.90;;;;;;6317593;28;20022;-69
2021/07/26 17:49:02;;;;;;;;;;;20.70;99.90;;;;;;6314822;28;19983;-68
2021/07/26 17:52:04;;;;;;;;;;;20.60;99.90;;;;;;6312086;28;20664;-68
2021/07/26 17:55:06;;;;;;;;;;;20.60;99.90;;;;;;6317538;28;19983;-69